createdAt,value
2023-05-13T00:00:41.476Z,10.90
2023-05-13T00:03:10.259Z,10.90
2023-05-13T00:05:39.342Z,10.47
2023-05-13T00:08:09.128Z,11.18
2023-05-13T00:10:37.626Z,11.50
2023-05-13T00:13:06.010Z,10.25
2023-05-13T00:15:34.345Z,10.65
2023-05-13T00:18:03.014Z,10.73
2023-05-13T00:20:31.321Z,11.80
2023-05-13T00:22:59.625Z,10.68
2023-05-13T00:25:29.751Z,10.70
2023-05-13T00:27:58.102Z,10.82
2023-05-13T00:30:26.508Z,10.30
2023-05-13T00:32:55.113Z,10.15
2023-05-13T00:35:23.330Z,10.15
2023-05-13T00:37:52.306Z,9.88
2023-05-13T00:40:23.639Z,9.50
2023-05-13T00:42:53.783Z,9.80
2023-05-13T00:45:22.337Z,10.25
2023-05-13T00:47:51.158Z,9.77
2023-05-13T00:50:19.910Z,9.65
2023-05-13T00:52:50.995Z,10.88
2023-05-13T00:55:19.448Z,9.30
2023-05-13T00:57:47.863Z,9.50
2023-05-13T01:06:14.515Z,9.10
2023-05-13T01:21:46.420Z,9.57
2023-05-13T01:28:33.360Z,10.18
2023-05-13T01:35:02.997Z,10.85
2023-05-13T01:38:25.861Z,10.80
2023-05-13T01:45:40.327Z,10.05
2023-05-13T01:49:20.966Z,10.00
2023-05-13T01:52:05.512Z,10.43
2023-05-13T01:59:10.847Z,11.00
2023-05-13T02:02:19.747Z,11.43
2023-05-13T02:05:39.959Z,10.77
2023-05-13T02:09:21.714Z,11.40
2023-05-13T02:13:12.469Z,12.02
2023-05-13T02:17:13.213Z,12.45
2023-05-13T02:27:12.083Z,13.77
2023-05-13T02:30:34.308Z,13.80
2023-05-13T02:34:05.484Z,13.88
2023-05-13T02:40:47.271Z,14.07
2023-05-13T02:44:02.356Z,15.02
2023-05-13T02:54:12.386Z,16.42
2023-05-13T03:00:54.109Z,17.92
2023-05-13T03:04:16.766Z,18.45
2023-05-13T03:07:31.803Z,18.10
2023-05-13T03:10:32.434Z,18.40
2023-05-13T03:13:24.627Z,18.43
2023-05-13T03:16:41.348Z,17.85
2023-05-13T03:20:16.042Z,18.38
2023-05-13T03:23:56.801Z,18.83
2023-05-13T03:27:22.575Z,17.63
2023-05-13T03:34:20.720Z,18.48
2023-05-13T03:40:22.993Z,18.52
2023-05-13T03:43:23.144Z,18.85
2023-05-13T03:46:34.693Z,16.93
2023-05-13T03:52:31.196Z,17.33
2023-05-13T03:55:59.500Z,16.30
2023-05-13T03:59:21.616Z,16.20
2023-05-13T04:02:19.504Z,16.10
2023-05-13T04:06:19.115Z,14.88
2023-05-13T04:09:39.948Z,14.63
2023-05-13T04:16:06.618Z,14.27
2023-05-13T04:22:56.784Z,13.13
2023-05-13T04:26:06.191Z,13.48
2023-05-13T04:29:21.404Z,14.27
2023-05-13T04:32:35.177Z,13.68
2023-05-13T04:35:21.662Z,14.00
2023-05-13T04:38:38.372Z,13.23
2023-05-13T04:41:39.938Z,13.95
2023-05-13T04:44:58.907Z,13.25
2023-05-13T04:48:32.838Z,13.52
2023-05-13T04:55:14.737Z,14.15
2023-05-13T04:58:58.548Z,14.50
2023-05-13T05:01:52.907Z,14.60
2023-05-13T05:04:51.570Z,14.40
2023-05-13T05:08:16.508Z,14.80
2023-05-13T05:10:57.915Z,14.13
2023-05-13T05:14:32.070Z,15.50
2023-05-13T05:17:55.922Z,15.70
2023-05-13T05:21:25.364Z,14.70
2023-05-13T05:24:56.848Z,14.53
2023-05-13T05:27:58.092Z,14.50
2023-05-13T05:34:34.064Z,13.88
2023-05-13T05:38:03.078Z,13.20
2023-05-13T05:41:14.317Z,12.27
2023-05-13T05:44:10.889Z,14.02
2023-05-13T05:47:27.811Z,11.23
2023-05-13T05:51:00.845Z,11.50
2023-05-13T05:54:21.326Z,11.48
2023-05-13T05:58:29.322Z,11.73
2023-05-13T06:19:09.167Z,9.30
2023-05-13T06:22:45.543Z,9.10
2023-05-13T06:26:33.091Z,7.80
2023-05-13T06:29:32.679Z,7.90
2023-05-13T06:33:00.223Z,8.87
2023-05-13T06:43:17.991Z,7.80
2023-05-13T06:47:52.184Z,7.35
2023-05-13T06:51:56.674Z,7.57
2023-05-13T07:06:08.927Z,7.00
2023-05-13T07:09:36.194Z,5.80
2023-05-13T07:13:39.327Z,6.20
2023-05-13T07:23:45.982Z,5.63
2023-05-13T07:30:46.934Z,5.65
2023-05-13T07:34:25.849Z,5.90
2023-05-13T07:37:25.507Z,5.60
2023-05-13T07:44:21.268Z,5.20
2023-05-13T07:50:27.277Z,5.15
2023-05-13T07:53:02.265Z,5.40
2023-05-13T07:55:38.286Z,5.45
2023-05-13T07:59:02.296Z,5.60
2023-05-13T08:02:30.220Z,5.00
2023-05-13T08:05:07.887Z,4.68
2023-05-13T08:07:51.225Z,4.95
2023-05-13T08:11:08.705Z,5.00
2023-05-13T08:14:25.486Z,4.90
2023-05-13T08:21:00.416Z,5.40
2023-05-13T08:23:59.326Z,5.63
2023-05-13T08:32:57.853Z,4.78
2023-05-13T08:42:13.861Z,5.60
2023-05-13T08:48:25.648Z,4.47
2023-05-13T08:51:42.558Z,5.10
2023-05-13T08:54:53.022Z,4.70
2023-05-13T08:57:58.858Z,4.85
2023-05-13T09:01:52.233Z,5.63
2023-05-13T09:05:50.402Z,4.53
2023-05-13T09:13:54.365Z,4.15
2023-05-13T09:17:01.615Z,4.50
2023-05-13T09:20:00.862Z,4.67
2023-05-13T09:23:32.910Z,4.22
2023-05-13T09:26:48.138Z,4.72
2023-05-13T09:30:45.611Z,4.20
2023-05-13T09:33:38.170Z,5.03
2023-05-13T09:36:32.196Z,4.67
2023-05-13T09:39:03.711Z,4.80
2023-05-13T09:41:42.418Z,4.75
2023-05-13T09:44:16.117Z,4.55
2023-05-13T09:46:46.917Z,5.03
2023-05-13T09:49:43.906Z,4.67
2023-05-13T09:52:20.304Z,5.20
2023-05-13T09:54:49.469Z,6.00
2023-05-13T09:57:43.661Z,5.10
2023-05-13T10:00:28.741Z,5.03
2023-05-13T10:03:22.594Z,5.10
2023-05-13T10:06:07.312Z,5.28
2023-05-13T10:09:11.065Z,5.95
2023-05-13T10:12:03.841Z,6.25
2023-05-13T10:14:49.843Z,5.35
2023-05-13T10:17:38.386Z,5.40
2023-05-13T10:20:38.549Z,6.35
2023-05-13T10:23:16.830Z,5.60
2023-05-13T10:26:07.981Z,5.97
2023-05-13T10:29:01.430Z,6.20
2023-05-13T10:34:27.901Z,6.43
2023-05-13T10:38:09.506Z,7.10
2023-05-13T10:41:11.873Z,6.88
2023-05-13T10:43:48.555Z,6.85
2023-05-13T10:46:21.069Z,7.00
2023-05-13T10:49:07.893Z,6.80
2023-05-13T10:52:05.995Z,5.97
2023-05-13T10:55:01.437Z,6.63
2023-05-13T10:57:43.773Z,6.53
2023-05-13T11:00:44.099Z,7.03
2023-05-13T11:03:54.805Z,7.32
2023-05-13T11:06:48.048Z,7.00
2023-05-13T11:10:23.058Z,6.20
2023-05-13T11:13:26.869Z,6.38
2023-05-13T11:16:23.334Z,7.10
2023-05-13T11:19:18.382Z,7.20
2023-05-13T11:22:22.240Z,6.63
2023-05-13T11:25:22.137Z,7.07
2023-05-13T11:28:18.821Z,7.32
2023-05-13T11:31:23.175Z,7.00
2023-05-13T11:35:18.989Z,7.00
2023-05-13T11:38:12.344Z,7.45
2023-05-13T11:40:52.256Z,7.80
2023-05-13T11:43:52.464Z,7.18
2023-05-13T11:46:29.028Z,7.40
2023-05-13T11:49:41.430Z,6.97
2023-05-13T11:55:28.536Z,7.13
2023-05-13T11:58:21.775Z,8.30
2023-05-13T12:01:05.057Z,7.70
2023-05-13T12:03:49.349Z,7.57
2023-05-13T12:06:35.534Z,8.43
2023-05-13T12:09:20.127Z,7.35
2023-05-13T12:12:08.564Z,7.68
2023-05-13T12:14:43.829Z,8.10
2023-05-13T12:17:25.367Z,8.15
2023-05-13T12:20:14.533Z,8.02
2023-05-13T12:22:58.664Z,7.82
2023-05-13T12:25:42.104Z,7.75
2023-05-13T12:28:19.151Z,7.33
2023-05-13T12:30:54.488Z,7.97
2023-05-13T12:33:24.297Z,8.30
2023-05-13T12:35:56.336Z,8.40
2023-05-13T12:38:28.723Z,7.82
2023-05-13T12:41:14.307Z,7.00
2023-05-13T12:43:43.657Z,8.07
2023-05-13T12:46:19.059Z,7.72
2023-05-13T12:48:54.640Z,7.47
2023-05-13T12:51:29.348Z,6.53
2023-05-13T12:54:03.177Z,7.10
2023-05-13T12:56:38.981Z,7.25
2023-05-13T12:59:17.263Z,7.40
2023-05-13T13:01:54.926Z,7.53
2023-05-13T13:04:27.568Z,8.00
2023-05-13T13:07:04.008Z,7.50
2023-05-13T13:09:39.930Z,8.35
2023-05-13T13:12:18.133Z,8.63
2023-05-13T13:14:57.114Z,7.88
2023-05-13T13:17:28.788Z,7.75
2023-05-13T13:20:02.802Z,8.60
2023-05-13T13:22:33.207Z,8.68
2023-05-13T13:25:13.703Z,8.05
2023-05-13T13:27:46.738Z,7.68
2023-05-13T13:30:19.734Z,8.85
2023-05-13T13:33:00.028Z,7.83
2023-05-13T13:35:28.645Z,8.23
2023-05-13T13:38:08.782Z,8.13
2023-05-13T13:40:47.356Z,7.95
2023-05-13T13:43:22.651Z,8.23
2023-05-13T13:45:53.963Z,7.97
2023-05-13T13:48:29.081Z,7.45
2023-05-13T13:51:05.555Z,7.28
2023-05-13T13:53:50.189Z,8.70
2023-05-13T13:56:32.121Z,8.07
2023-05-13T13:59:09.968Z,8.53
2023-05-13T14:01:46.998Z,7.35
2023-05-13T14:04:26.505Z,7.78
2023-05-13T14:07:13.419Z,7.60
2023-05-13T14:10:01.029Z,8.30
2023-05-13T14:12:39.628Z,7.70
2023-05-13T14:15:13.885Z,7.40
2023-05-13T14:17:48.934Z,8.25
2023-05-13T14:20:29.691Z,7.50
2023-05-13T14:22:57.668Z,7.43
2023-05-13T14:25:27.215Z,8.00
2023-05-13T14:27:54.918Z,8.88
2023-05-13T14:30:22.979Z,8.27
2023-05-13T14:32:50.925Z,8.07
2023-05-13T14:35:18.865Z,7.80
2023-05-13T14:37:46.676Z,6.80
2023-05-13T14:40:14.612Z,7.95
2023-05-13T14:42:43.776Z,8.35
2023-05-13T14:45:15.956Z,7.95
2023-05-13T14:47:44.673Z,8.50
2023-05-13T14:50:15.013Z,8.23
2023-05-13T14:52:42.766Z,8.32
2023-05-13T14:55:11.819Z,8.10
2023-05-13T14:57:40.118Z,7.20
2023-05-13T15:00:10.985Z,7.00
2023-05-13T15:02:39.008Z,7.20
2023-05-13T15:05:07.824Z,7.47
2023-05-13T15:07:36.166Z,7.45
2023-05-13T15:10:04.095Z,7.38
2023-05-13T15:12:31.826Z,7.30
2023-05-13T15:14:59.723Z,7.23
2023-05-13T15:17:29.990Z,6.72
2023-05-13T15:19:57.826Z,6.97
2023-05-13T15:22:25.548Z,7.57
2023-05-13T15:24:53.325Z,7.63
2023-05-13T15:27:21.731Z,6.90
2023-05-13T15:29:49.511Z,7.40
2023-05-13T15:32:17.234Z,8.02
2023-05-13T15:34:46.483Z,8.38
2023-05-13T15:37:14.339Z,8.77
2023-05-13T15:39:42.324Z,8.90
2023-05-13T15:42:10.072Z,8.73
2023-05-13T15:44:37.910Z,7.97
2023-05-13T15:47:06.351Z,8.25
2023-05-13T15:49:34.241Z,7.47
2023-05-13T15:52:06.235Z,7.90
2023-05-13T15:54:34.952Z,8.38
2023-05-13T15:57:02.961Z,8.52
2023-05-13T15:59:30.755Z,8.25
2023-05-13T16:01:58.666Z,8.23
2023-05-13T16:04:26.554Z,7.50
2023-05-13T16:06:54.411Z,7.40
2023-05-13T16:09:23.823Z,7.10
2023-05-13T16:11:51.646Z,6.93
2023-05-13T16:14:19.613Z,6.35
2023-05-13T16:16:47.706Z,5.97
2023-05-13T16:19:15.589Z,6.03
2023-05-13T16:21:43.595Z,6.40
2023-05-13T16:24:11.334Z,5.85
2023-05-13T16:26:40.521Z,5.30
2023-05-13T16:29:08.311Z,6.97
2023-05-13T16:31:36.052Z,6.60
2023-05-13T16:34:04.230Z,6.20
2023-05-13T16:36:32.015Z,6.35
2023-05-13T16:39:00.048Z,6.15
2023-05-13T16:41:27.892Z,5.87
2023-05-13T16:43:57.044Z,6.50
2023-05-13T16:46:24.738Z,7.15
2023-05-13T16:48:52.541Z,5.63
2023-05-13T16:51:20.421Z,5.78
2023-05-13T16:53:48.196Z,5.63
2023-05-13T16:56:16.618Z,6.40
2023-05-13T16:58:44.398Z,6.28
2023-05-13T17:01:13.622Z,6.57
2023-05-13T17:03:41.574Z,6.47
2023-05-13T17:06:09.692Z,7.30
2023-05-13T17:08:37.418Z,6.65
2023-05-13T17:11:05.468Z,6.05
2023-05-13T17:13:33.250Z,7.75
2023-05-13T17:16:01.208Z,6.90
2023-05-13T17:18:30.336Z,7.37
2023-05-13T17:20:59.929Z,6.95
2023-05-13T17:23:27.645Z,7.30
2023-05-13T17:25:55.432Z,6.78
2023-05-13T17:28:23.280Z,6.95
2023-05-13T17:30:51.118Z,7.03
2023-05-13T17:33:18.899Z,6.47
2023-05-13T17:35:48.107Z,7.43
2023-05-13T17:38:15.861Z,6.80
2023-05-13T17:40:43.634Z,7.13
2023-05-13T17:43:11.362Z,7.00
2023-05-13T17:45:39.259Z,7.57
2023-05-13T17:48:07.665Z,7.75
2023-05-13T17:50:35.628Z,8.25
2023-05-13T17:53:04.794Z,8.27
2023-05-13T17:55:32.569Z,7.57
2023-05-13T17:58:00.281Z,7.85
2023-05-13T18:04:11.262Z,8.75
2023-05-13T18:07:11.102Z,9.18
2023-05-13T18:09:40.796Z,8.60
2023-05-13T18:12:09.678Z,8.80
2023-05-13T18:14:38.375Z,9.50
2023-05-13T18:17:06.998Z,9.43
2023-05-13T18:19:35.274Z,9.23
2023-05-13T18:22:05.534Z,8.67
2023-05-13T18:24:33.741Z,9.05
2023-05-13T18:27:03.617Z,9.18
2023-05-13T18:29:32.078Z,9.43
2023-05-13T18:32:00.415Z,9.45
2023-05-13T18:34:28.905Z,9.03
2023-05-13T18:36:57.288Z,8.95
2023-05-13T18:39:25.421Z,9.25
2023-05-13T18:41:53.972Z,9.85
2023-05-13T18:44:23.753Z,9.35
2023-05-13T18:46:52.108Z,9.03
2023-05-13T18:49:20.605Z,9.27
2023-05-13T18:51:49.063Z,9.02
2023-05-13T18:54:17.336Z,9.18
2023-05-13T18:56:46.153Z,10.15
2023-05-13T18:59:14.923Z,9.23
2023-05-13T19:01:45.016Z,10.00
2023-05-13T19:04:15.292Z,10.48
2023-05-13T19:06:43.425Z,9.63
2023-05-13T19:09:11.796Z,10.18
2023-05-13T19:11:40.564Z,9.70
2023-05-13T19:14:08.845Z,10.95
2023-05-13T19:16:37.206Z,10.48
2023-05-13T19:19:07.293Z,10.88
2023-05-13T19:21:36.142Z,10.20
2023-05-13T19:24:04.609Z,9.77
2023-05-13T19:26:33.125Z,9.73
2023-05-13T19:29:01.458Z,10.07
2023-05-13T19:31:31.626Z,10.13
2023-05-13T19:34:01.457Z,10.18
2023-05-13T19:36:31.306Z,9.87
2023-05-13T19:38:59.853Z,10.48
2023-05-13T19:41:28.421Z,10.18
2023-05-13T19:43:56.904Z,9.85
2023-05-13T19:46:25.171Z,10.35
2023-05-13T19:48:53.241Z,10.13
2023-05-13T19:51:21.785Z,9.63
2023-05-13T19:53:52.427Z,10.18
2023-05-13T19:56:21.213Z,10.20
2023-05-13T19:58:49.702Z,9.98
2023-05-13T20:01:17.894Z,10.30
2023-05-13T20:03:46.858Z,10.32
2023-05-13T20:06:15.263Z,10.90
2023-05-13T20:08:43.835Z,11.15
2023-05-13T20:11:13.634Z,10.60
2023-05-13T20:13:42.089Z,10.93
2023-05-13T20:16:10.577Z,10.20
2023-05-13T20:18:39.297Z,10.82
2023-05-13T20:21:07.604Z,10.70
2023-05-13T20:23:35.969Z,10.23
2023-05-13T20:26:04.271Z,9.67
2023-05-13T20:28:35.600Z,10.60
2023-05-13T20:31:05.398Z,10.48
2023-05-13T20:33:33.698Z,10.70
2023-05-13T20:36:02.347Z,11.05
2023-05-13T20:38:30.903Z,10.30
2023-05-13T20:40:59.440Z,10.40
2023-05-13T20:43:30.017Z,9.98
2023-05-13T20:46:00.465Z,9.90
2023-05-13T20:48:33.294Z,10.40
2023-05-13T20:51:05.931Z,10.60
2023-05-13T20:53:35.060Z,9.75
2023-05-13T20:56:05.192Z,10.20
2023-05-13T20:58:33.624Z,9.38
2023-05-13T21:01:04.231Z,9.43
2023-05-13T21:03:34.211Z,9.30
2023-05-13T21:06:03.272Z,9.90
2023-05-13T21:08:31.619Z,9.70
2023-05-13T21:10:59.898Z,9.52
2023-05-13T21:13:28.029Z,9.57
2023-05-13T21:16:23.035Z,9.27
2023-05-13T21:26:32.392Z,10.10
2023-05-13T21:29:34.888Z,9.95
2023-05-13T21:32:39.650Z,9.77
2023-05-13T21:39:30.908Z,9.65
2023-05-13T21:42:30.344Z,9.65
2023-05-13T21:48:27.459Z,10.73
2023-05-13T21:54:37.165Z,9.68
2023-05-13T21:57:18.606Z,9.32
2023-05-13T22:03:51.140Z,9.77
2023-05-13T22:06:33.607Z,9.45
2023-05-13T22:09:29.504Z,10.20
2023-05-13T22:12:13.473Z,10.75
2023-05-13T22:15:09.907Z,9.35
2023-05-13T22:17:46.831Z,10.10
2023-05-13T22:20:35.130Z,9.38
2023-05-13T22:23:07.869Z,10.52
2023-05-13T22:26:18.402Z,9.98
2023-05-13T22:29:40.221Z,10.30
2023-05-13T22:32:52.934Z,10.73
2023-05-13T22:35:53.408Z,11.20
2023-05-13T22:39:03.030Z,11.68
2023-05-13T22:42:14.602Z,12.07
2023-05-13T22:45:37.725Z,11.88
2023-05-13T22:49:02.283Z,11.50
2023-05-13T22:51:41.758Z,11.38
2023-05-13T22:54:47.288Z,11.60
2023-05-13T22:57:38.002Z,11.00
2023-05-13T23:00:48.801Z,10.88
2023-05-13T23:04:03.764Z,10.90
2023-05-13T23:07:59.590Z,10.45
2023-05-13T23:19:04.927Z,9.40
2023-05-13T23:22:06.948Z,8.83
2023-05-13T23:25:20.637Z,8.40
2023-05-13T23:30:59.043Z,9.10
2023-05-13T23:33:34.105Z,8.00
2023-05-13T23:36:16.249Z,8.87
2023-05-13T23:38:59.214Z,8.88
2023-05-13T23:41:56.883Z,7.70
2023-05-13T23:44:30.590Z,8.95
2023-05-13T23:47:12.605Z,8.55
2023-05-13T23:49:52.363Z,8.17
2023-05-13T23:52:47.410Z,8.98
2023-05-13T23:55:43.984Z,8.75
2023-05-13T23:58:16.608Z,8.48
